• Join FlightAware (Why Join?)
  • Login
  • US Flag 
07:38PM EDT


 

Airport Tracker/Info


-or-


 

Live Flight TrackerFlight Track Log ✈ UAL1206 ✈ 14-Jul-2013 ✈ KIAD - KFLL

Flight Track Log - Related Links

Times and Time Zones

All times are in EDT time to prevent confusion due to time zone crossing. See the UAL1206 flight status page for this flight to view local times or setup timezone preferences in your user account.

Time Position Orientation Groundspeed Altitude Reporting Facility
EDT Latitude Longitude Course Direction KTS MPH feet Rate Location/Type
08:23PM 38.9667 -77.5333 North 206 237 2,400  Level Potomac TRACON
08:25PM 39.1003 -77.5119 North 258 297 8,100 2,340 Climbing Washington Center
08:26PM 39.1517 -77.4303 51° Northeast 265 305 10,100 1,260 Climbing Washington Center
08:27PM 39.1656 -77.3289 80° East 278 320 10,700 1,440 Climbing Washington Center
08:28PM 39.1339 -77.2158 110° East 271 312 13,100 2,580 Climbing Washington Center
08:29PM 39.1000 -77.0947 110° East 313 360 15,800 2,340 Climbing Washington Center
08:30PM 39.0639 -76.9711 111° Southeast 344 396 17,800 1,560 Climbing Washington Center
08:31PM 39.0256 -76.8447 111° Southeast 363 418 19,000 540 Climbing Washington Center
08:32PM 38.9472 -76.7661 142° Southeast 360 414 19,000  Level Washington Center
08:33PM 38.8347 -76.7561 176° South 347 399 19,000 540 Level Washington Center
08:34PM 38.7222 -76.7464 176° South 381 438 20,100 1,500 Climbing Washington Center
08:35PM 38.6036 -76.7314 174° South 411 473 22,000 1,380 Climbing Washington Center
08:36PM 38.4808 -76.7161 174° South 437 503 23,000 480 Climbing Washington Center
08:37PM 38.3578 -76.6986 174° South 443 510 23,000 60 Level Washington Center
08:38PM 38.2392 -76.6808 173° South 443 510 23,200 840 Climbing Washington Center
08:39PM 38.1142 -76.6658 175° South 443 510 24,700 1,500 Climbing Washington Center
08:40PM 37.9850 -76.6483 174° South 460 529 26,200 1,320 Climbing Washington Center
08:41PM 37.8536 -76.6594 184° South 465 535 27,500 1,260 Climbing Washington Center
08:42PM 37.7178 -76.6761 186° South 479 551 28,800 1,560 Climbing Washington Center
08:43PM 37.5800 -76.6925 185° South 491 565 30,600 1,920 Climbing Washington Center
08:44PM 37.4483 -76.7114 186° South 486 559 32,800 1,800 Climbing Washington Center
08:45PM 37.3186 -76.7617 197° South 481 554 34,200 1,440 Climbing Washington Center
08:46PM 37.1931 -76.8147 199° South 481 554 35,700 1,080 Climbing Washington Center
08:47PM 37.0608 -76.8725 199° South 481 554 36,400 780 Climbing Washington Center
08:48PM 36.9353 -76.9250 198° South 476 548 37,300 780 Climbing Washington Center
08:49PM 36.8219 -76.9722 198° South 476 548 38,000 300 Climbing Washington Center
08:50PM 36.6961 -77.0219 198° South 476 548 38,000  Level Washington Center
08:51PM 36.5725 -77.0739 199° South 476 548 38,000  Level Washington Center
08:52PM 36.4489 -77.1231 198° South 481 554 38,000  Level Washington Center
08:53PM 36.3228 -77.1800 200° South 481 554 38,000  Level Washington Center
08:54PM 36.1928 -77.2342 199° South 486 559 38,000  Level Washington Center
08:55PM 36.0711 -77.2778 196° South 472 543 38,000  Level Washington Center
08:56PM 35.9431 -77.3314 199° South 477 549 38,000  Level Washington Center
08:57PM 35.8131 -77.3825 198° South 489 563 38,000  Level Washington Center
08:58PM 35.6950 -77.4564 207° Southwest 483 556 38,000  Level Washington Center
08:59PM 35.5850 -77.5611 218° Southwest 488 562 38,000  Level Washington Center
09:00PM 35.4747 -77.6631 217° Southwest 499 574 38,000  Level Washington Center
09:01PM 35.3644 -77.7672 218° Southwest 504 580 38,000  Level Washington Center
09:02PM 35.2561 -77.8686 217° Southwest 504 580 38,000  Level Washington Center
09:03PM 35.1475 -77.9722 218° Southwest 504 580 38,000  Level Washington Center
09:04PM 35.0369 -78.0781 218° Southwest 499 574 38,000  Level Washington Center
09:05PM 34.9283 -78.1786 217° Southwest 499 574 38,000  Level Washington Center
09:06PM 34.8197 -78.2839 219° Southwest 499 574 38,000  Level Washington Center
09:07PM 34.7256 -78.3817 220° Southwest 499 574 38,000  Level Washington Center
09:08PM 34.5294 -78.5503 215° Southwest 508 585 38,000  Level Jacksonville Center
09:09PM 34.4367 -78.6481 221° Southwest 508 585 38,000  Level Jacksonville Center
09:10PM 34.3256 -78.7517 218° Southwest 508 585 38,000 -60 Level Jacksonville Center
09:11PM 34.2092 -78.8350 211° Southwest 503 579 37,900 -60 Descending Jacksonville Center
09:12PM 34.0797 -78.8961 201° Southwest 492 566 37,900  Level Jacksonville Center
09:13PM 33.9544 -78.9569 202° Southwest 492 566 37,900  Level Jacksonville Center
09:14PM 33.8250 -79.0178 201° Southwest 498 573 38,000  Climbing Jacksonville Center
09:15PM 33.6994 -79.0806 203° Southwest 498 573 38,000  Level Jacksonville Center
09:16PM 33.5739 -79.1358 200° South 491 565 38,000  Level Jacksonville Center
09:17PM 33.4483 -79.1986 203° Southwest 486 559 38,000  Level Jacksonville Center
09:18PM 33.3208 -79.2586 201° Southwest 486 559 38,000  Level Jacksonville Center
09:19PM 33.1933 -79.3208 202° Southwest 491 565 38,000 -60 Level Jacksonville Center
09:20PM 33.0656 -79.3828 202° Southwest 496 571 37,900 -60 Descending Jacksonville Center
09:21PM 32.9378 -79.4422 201° Southwest 496 571 37,900  Level Jacksonville Center
09:22PM 32.8100 -79.5064 203° Southwest 496 571 38,000  Climbing Jacksonville Center
09:23PM 32.6700 -79.5733 202° Southwest 496 571 38,000  Level Jacksonville Center
09:24PM 32.5422 -79.6347 202° Southwest 496 571 38,000  Level Jacksonville Center
09:25PM 32.4122 -79.6961 202° Southwest 496 571 38,000  Level Jacksonville Center
09:26PM 32.2864 -79.7519 201° Southwest 496 571 38,000 -60 Level Jacksonville Center
09:27PM 32.1583 -79.8128 202° Southwest 491 565 37,900  Descending Jacksonville Center
09:28PM 32.0325 -79.8733 202° Southwest 491 565 38,000  Climbing Jacksonville Center
09:29PM 31.9044 -79.9339 202° Southwest 491 565 37,900  Descending Jacksonville Center
09:30PM 31.7764 -79.9942 202° Southwest 491 565 38,000  Climbing Jacksonville Center
09:31PM 31.6503 -80.0519 201° Southwest 491 565 38,000  Level Jacksonville Center
09:32PM 31.5222 -80.1094 201° Southwest 491 565 38,000  Level Jacksonville Center
09:33PM 31.3961 -80.1717 203° Southwest 491 565 38,000  Level Jacksonville Center
09:34PM 31.2700 -80.2239 199° South 486 559 38,000 -60 Level Jacksonville Center
09:35PM 31.1458 -80.2831 202° Southwest 486 559 37,900  Descending Jacksonville Center
09:36PM 31.0239 -80.3422 203° Southwest 492 566 38,000  Climbing Jacksonville Center
09:37PM 30.8936 -80.3992 201° Southwest 492 566 38,000 -60 Level Jacksonville Center
09:38PM 30.7694 -80.4556 201° Southwest 492 566 37,900 -60 Descending Jacksonville Center
09:39PM 30.6450 -80.5047 199° South 492 566 37,900  Level Jacksonville Center
09:40PM 30.5136 -80.5056 180° South 469 540 38,000  Climbing Jacksonville Center
09:41PM 30.3797 -80.5017 179° South 469 540 37,900 -60 Descending Jacksonville Center
09:42PM 30.2503 -80.4975 178° South 474 545 37,900  Level Jacksonville Center
09:43PM 30.1206 -80.4889 177° South 474 545 38,000  Climbing Jacksonville Center
09:44PM 30.0161 -80.4842 178° South 474 545 37,900 -60 Descending Jacksonville Center
09:45PM 29.8742 -80.4806 179° South 474 545 37,900  Level Jacksonville Center
09:46PM 29.7467 -80.4767 178° South 467 537 38,000  Climbing Jacksonville Center
09:47PM 29.6194 -80.4700 177° South 467 537 38,000  Level Jacksonville Center
09:48PM 29.4897 -80.4661 179° South 462 532 38,000  Level Jacksonville Center
09:49PM 29.3686 -80.4572 176° South 457 526 38,000  Level Jacksonville Center
09:51PM 29.1653 -80.4519 179° South 453 521 38,000  Level Miami Center
09:52PM 29.0361 -80.4456 178° South 458 527 38,000  Level Miami Center
09:53PM 28.9050 -80.4389 177° South 464 534 38,000  Level Miami Center
09:54PM 28.7736 -80.4322 177° South 464 534 38,000  Level Miami Center
09:55PM 28.6511 -80.4094 171° South 464 534 38,000 -120 Level Miami Center
09:56PM 28.5825 -80.3128 129° Southeast 420 483 37,800 -600 Descending Miami Center
09:57PM 28.5211 -80.1736 117° Southeast 426 490 36,800 -900 Descending Miami Center
09:58PM 28.4656 -80.0539 118° Southeast 433 498 36,000 -420 Descending Miami Center
09:59PM 28.4119 -79.9297 116° Southeast 438 504 36,000  Level Miami Center
10:00PM 28.3600 -79.8128 117° Southeast 438 504 36,000  Level Miami Center
10:01PM 28.2569 -79.7442 150° Southeast 421 484 36,000 -120 Level Miami Center
10:02PM 28.1275 -79.7525 183° South 412 474 35,800 -600 Descending Miami Center
10:03PM 28.0000 -79.7564 182° South 438 504 34,900 -1,020 Descending Miami Center
10:04PM 27.8600 -79.7622 182° South 449 517 33,800 -1,560 Descending Miami Center
10:05PM 27.7431 -79.7639 181° South 466 536 31,800 -2,280 Descending Miami Center
10:06PM 27.6156 -79.7700 182° South 466 536 29,300 -2,460 Descending Miami Center
10:07PM 27.4778 -79.7736 181° South 453 521 26,900 -2,280 Descending Miami Center
10:08PM 27.3567 -79.7750 181° South 448 516 24,800 -1,440 Descending Miami Center
10:09PM 27.2483 -79.7583 172° South 426 490 24,000 -840 Descending Miami Center
10:10PM 27.1633 -79.7328 165° South 372 428 23,200 -1,260 Descending Miami Center
10:11PM 27.0669 -79.7444 186° South 345 397 21,600 -1,680 Descending Miami Center
10:12PM 26.9636 -79.7933 203° Southwest 355 409 19,800 -1,920 Descending Miami Center
10:13PM 26.8753 -79.8306 201° Southwest 350 403 17,900 -1,740 Descending Miami Center
10:14PM 26.7972 -79.8681 203° Southwest 350 403 16,400 -1,680 Descending Miami Center
10:15PM 26.7044 -79.9078 201° Southwest 339 390 14,600 -1,740 Descending Miami Center
10:16PM 26.6306 -79.9406 202° Southwest 330 380 12,900 -1,860 Descending Miami Center
10:17PM 26.5567 -79.9758 203° Southwest 306 352 11,300 -1,800 Descending Miami Center
10:18PM 26.4725 -80.0131 202° Southwest 298 343 9,500 -1,560 Descending Miami Center
10:19PM 26.3922 -80.0458 200° South 298 343 7,900 -1,320 Descending Miami Center
10:20PM 26.3247 -80.0786 204° Southwest 282 325 6,800 -1,080 Descending Miami Center
10:21PM 26.2594 -80.1069 201° Southwest 273 314 6,000 -420 Descending Miami Center
10:22PM 26.2142 -80.1636 228° Southwest 233 268 6,000 -180 Level Miami Center
10:23PM 26.2025 -80.2258 258° West 225 259 5,700 -720 Descending Miami Center
10:24PM 26.1881 -80.3089 259° West 237 273 4,600 -900 Descending Miami Center
10:25PM 26.1758 -80.3756 258° West 235 270 4,000 -360 Descending Miami Center
10:26PM 26.1639 -80.4400 258° West 230 265 4,000 -660 Level Miami Center
10:27PM 26.1133 -80.4569 197° South 195 224 2,800 -1,080 Descending Miami Center
10:28PM 26.0789 -80.4189 135° Southeast 191 220 1,900 -420 Descending Miami Center
10:29PM 26.0758 -80.3681 94° East 167 192 2,000  Climbing Miami Center
10:30PM 26.0750 -80.3147 91° East 168 193 2,000  Level Miami Center